Time;durP1;ratioP1;P1;durP2;ratioP2;P2;SDS_P1;SDS_P2;PMS_P1;PMS_P2;Temp;Humidity;BMP_temperature;BMP_pressure;BME280_temperature;BME280_humidity;BME280_pressure;Samples;Min_cycle;Max_cycle;Signal;HPM_P1;HPM_P2
2022/01/10 00:01:01;;;;;;;11.97;9.13;;;;;;;2.30;100.00;97556.34;5107191;28;20226;-77
2022/01/10 00:03:27;;;;;;;13.47;9.57;;;;;;;2.30;100.00;97556.34;5110626;28;20563;-77
2022/01/10 00:05:54;;;;;;;13.63;9.90;;;;;;;2.32;100.00;97554.53;5110534;28;20566;-77
2022/01/10 00:08:20;;;;;;;10.47;8.97;;;;;;;2.34;100.00;97553.53;5110443;28;20240;-77
2022/01/10 00:10:47;;;;;;;13.63;10.20;;;;;;;2.35;100.00;97560.44;5101689;28;20257;-77
2022/01/10 00:13:14;;;;;;;14.27;9.50;;;;;;;2.39;100.00;97556.78;5096512;28;20229;-77
2022/01/10 00:15:41;;;;;;;13.43;9.50;;;;;;;2.43;100.00;97562.69;5096158;28;20677;-77
2022/01/10 00:18:09;;;;;;;13.73;9.30;;;;;;;2.40;100.00;97561.06;5096133;28;20219;-77
2022/01/10 00:20:36;;;;;;;16.87;11.07;;;;;;;2.41;100.00;97567.13;5099295;28;20218;-77
2022/01/10 00:23:02;;;;;;;14.40;10.50;;;;;;;2.40;100.00;97568.88;5096335;28;20206;-77
2022/01/10 00:25:29;;;;;;;12.90;10.83;;;;;;;2.41;100.00;97568.00;5096305;28;20224;-78
2022/01/10 00:27:56;;;;;;;15.90;10.50;;;;;;;2.38;100.00;97575.94;5097600;28;20229;-77
2022/01/10 00:30:24;;;;;;;16.17;10.97;;;;;;;2.43;100.00;97568.75;5103460;28;20246;-77
2022/01/10 00:32:51;;;;;;;15.23;10.60;;;;;;;2.44;100.00;97573.06;5100510;28;20214;-77
2022/01/10 00:35:20;;;;;;;14.63;10.37;;;;;;;2.46;100.00;97571.22;5100559;28;20211;-77
2022/01/10 00:37:47;;;;;;;14.83;11.17;;;;;;;2.42;100.00;97574.91;5098468;28;20714;-77
2022/01/10 00:40:16;;;;;;;14.73;10.90;;;;;;;2.39;100.00;97582.03;5103227;28;20214;-77
2022/01/10 00:42:43;;;;;;;13.90;10.70;;;;;;;2.39;100.00;97585.44;5100249;28;20217;-77
2022/01/10 00:45:17;;;;;;;14.47;10.40;;;;;;;2.41;100.00;97591.47;5100209;28;20246;-77
2022/01/10 00:47:47;;;;;;;15.37;10.90;;;;;;;2.43;100.00;97591.38;5100502;28;20648;-77
2022/01/10 00:50:14;;;;;;;16.13;10.53;;;;;;;2.41;100.00;97601.03;5102169;28;20245;-77
2022/01/10 00:52:41;;;;;;;13.93;9.67;;;;;;;2.33;100.00;97592.72;5100154;28;20210;-77
2022/01/10 00:55:08;;;;;;;11.83;9.07;;;;;;;2.25;100.00;97600.88;5100053;28;20333;-77
2022/01/10 00:57:35;;;;;;;15.53;9.50;;;;;;;2.24;100.00;97599.19;5100166;28;20210;-77
2022/01/10 01:00:02;;;;;;;13.03;9.90;;;;;;;2.22;100.00;97605.38;5102689;28;20679;-77
2022/01/10 01:02:32;;;;;;;10.97;9.00;;;;;;;2.25;100.00;97615.66;5098026;28;20301;-77
2022/01/10 01:04:58;;;;;;;12.77;9.10;;;;;;;2.24;100.00;97608.75;5099751;28;20265;-77
2022/01/10 01:07:25;;;;;;;12.57;9.30;;;;;;;2.21;100.00;97608.91;5099887;28;20210;-77
2022/01/10 01:10:04;;;;;;;10.80;8.77;;;;;;;2.20;100.00;97609.84;5103828;28;20604;-77
2022/01/10 01:12:40;;;;;;;15.30;9.43;;;;;;;2.17;100.00;97618.63;5099838;28;20218;-77
2022/01/10 01:15:18;;;;;;;13.13;9.53;;;;;;;2.20;100.00;97622.88;5099831;28;20263;-77
2022/01/10 01:17:58;;;;;;;12.87;9.60;;;;;;;2.21;100.00;97627.16;5110960;28;20211;-77
2022/01/10 01:20:42;;;;;;;13.33;9.80;;;;;;;2.25;100.00;97632.16;5113407;28;20215;-77
2022/01/10 01:25:54;;;;;;;13.80;10.60;;;;;;;2.36;100.00;97644.72;5112642;28;20215;-77
2022/01/10 01:28:21;;;;;;;14.70;10.53;;;;;;;2.40;100.00;97649.72;5098619;28;20217;-77
2022/01/10 01:30:47;;;;;;;14.07;11.07;;;;;;;2.43;100.00;97657.44;5098328;28;20699;-77
2022/01/10 01:33:15;;;;;;;15.53;11.33;;;;;;;2.45;100.00;97652.16;5101569;28;20583;-77
2022/01/10 01:35:42;;;;;;;14.80;11.07;;;;;;;2.48;100.00;97660.69;5099578;28;20666;-77
2022/01/10 01:38:08;;;;;;;15.90;10.93;;;;;;;2.49;100.00;97662.38;5098625;28;20215;-77
2022/01/10 01:40:40;;;;;;;13.33;10.60;;;;;;;2.50;100.00;97669.28;5099047;28;20294;-77
2022/01/10 01:43:08;;;;;;;14.83;10.73;;;;;;;2.49;100.00;97666.72;5101780;28;20232;-77
2022/01/10 01:45:39;;;;;;;12.80;11.07;;;;;;;2.49;100.00;97672.81;5099098;28;20222;-77
2022/01/10 01:48:07;;;;;;;13.23;10.10;;;;;;;2.47;100.00;97677.25;5099116;28;20576;-77
2022/01/10 01:50:34;;;;;;;14.33;10.70;;;;;;;2.47;100.00;97674.63;5098988;28;20648;-77
2022/01/10 01:53:01;;;;;;;18.07;12.40;;;;;;;2.45;100.00;97675.63;5101981;28;20210;-77
2022/01/10 01:55:27;;;;;;;14.83;11.20;;;;;;;2.42;100.00;97679.22;5097261;28;20206;-77
2022/01/10 01:57:54;;;;;;;14.53;12.17;;;;;;;2.43;100.00;97680.03;5098844;28;20210;-77
2022/01/10 02:00:23;;;;;;;18.80;11.70;;;;;;;2.44;100.00;97679.97;5098711;28;20225;-77
2022/01/10 02:02:50;;;;;;;15.00;11.90;;;;;;;2.42;100.00;97691.38;5101781;28;20210;-77
2022/01/10 02:05:17;;;;;;;15.77;12.27;;;;;;;2.40;100.00;97693.22;5098661;28;20220;-77
2022/01/10 02:07:44;;;;;;;14.83;10.83;;;;;;;2.40;100.00;97694.06;5098420;28;20211;-77
2022/01/10 02:10:11;;;;;;;16.37;11.83;;;;;;;2.44;100.00;97698.22;5107120;28;20229;-77
2022/01/10 02:12:38;;;;;;;15.57;11.83;;;;;;;2.47;100.00;97702.47;5102309;28;20216;-77
2022/01/10 02:15:06;;;;;;;14.47;11.23;;;;;;;2.50;100.00;97700.56;5098625;28;20214;-77
2022/01/10 02:17:36;;;;;;;15.37;11.33;;;;;;;2.53;100.00;97705.66;5098597;28;20211;-77
2022/01/10 02:20:06;;;;;;;18.77;11.83;;;;;;;2.52;100.00;97711.78;5098234;28;20669;-77
2022/01/10 02:22:33;;;;;;;15.13;11.00;;;;;;;2.53;100.00;97705.66;5107599;28;20584;-77
2022/01/10 02:25:00;;;;;;;13.83;11.07;;;;;;;2.57;100.00;97709.81;5112080;28;20206;-77
2022/01/10 02:27:27;;;;;;;12.73;9.60;;;;;;;2.56;100.00;97710.72;5112212;28;20210;-77
2022/01/10 02:29:53;;;;;;;11.10;9.27;;;;;;;2.57;100.00;97717.63;5111591;28;20206;-77
2022/01/10 02:32:20;;;;;;;12.87;9.37;;;;;;;2.55;100.00;97714.25;5108842;28;20217;-77
2022/01/10 02:34:47;;;;;;;12.70;9.10;;;;;;;2.56;100.00;97715.13;5112120;28;20210;-77
2022/01/10 02:37:33;;;;;;;11.37;9.17;;;;;;;2.55;100.00;97727.31;5111875;28;20210;-77
2022/01/10 02:40:03;;;;;;;13.80;10.40;;;;;;;2.58;100.00;97724.53;5112025;28;20589;-77
2022/01/10 02:42:30;;;;;;;12.77;10.13;;;;;;;2.59;100.00;97730.63;5098498;28;20220;-77
2022/01/10 02:44:56;;;;;;;15.50;10.50;;;;;;;2.60;100.00;97733.16;5097754;28;20206;-77
2022/01/10 02:47:23;;;;;;;12.70;9.03;;;;;;;2.59;100.00;97735.84;5097614;28;20215;-77
2022/01/10 02:49:49;;;;;;;12.13;9.43;;;;;;;2.64;100.00;97734.69;5097237;28;20222;-77
2022/01/10 02:52:16;;;;;;;13.10;8.90;;;;;;;2.64;100.00;97737.31;5098868;28;20206;-77
2022/01/10 02:54:44;;;;;;;13.13;9.17;;;;;;;2.67;100.00;97742.41;5097702;28;20216;-76
2022/01/10 02:57:10;;;;;;;13.13;8.67;;;;;;;2.69;100.00;97756.22;5097769;28;20214;-77
2022/01/10 02:59:39;;;;;;;14.80;9.07;;;;;;;2.73;100.00;97754.31;5098957;28;20215;-77
2022/01/10 03:02:07;;;;;;;13.13;8.77;;;;;;;2.72;100.00;97758.72;5099166;28;20563;-77
2022/01/10 03:04:34;;;;;;;9.10;7.93;;;;;;;2.78;100.00;97757.59;5097673;28;20222;-77
2022/01/10 03:07:01;;;;;;;9.97;8.17;;;;;;;2.81;100.00;97771.34;5097547;28;20214;-77
2022/01/10 03:09:27;;;;;;;11.50;8.50;;;;;;;2.86;100.00;97773.75;5099929;28;20211;-77
2022/01/10 03:11:55;;;;;;;11.67;9.67;;;;;;;2.88;100.00;97775.38;5098787;28;20230;-77
2022/01/10 03:14:22;;;;;;;8.43;7.53;;;;;;;2.89;100.00;97779.66;5095632;28;20668;-77
2022/01/10 03:16:48;;;;;;;9.53;7.73;;;;;;;2.89;100.00;97778.84;5097188;28;20211;-77
2022/01/10 03:19:15;;;;;;;10.73;7.80;;;;;;;2.88;100.00;97785.81;5098305;28;20216;-77
2022/01/10 03:21:41;;;;;;;8.50;7.27;;;;;;;2.90;100.00;97788.34;5099672;28;20210;-77
2022/01/10 03:24:08;;;;;;;9.53;7.40;;;;;;;2.91;100.00;97783.06;5097439;28;20206;-76
2022/01/10 03:26:34;;;;;;;11.93;7.50;;;;;;;2.94;100.00;97789.94;5096931;28;20313;-77
2022/01/10 03:29:02;;;;;;;10.33;8.20;;;;;;;2.93;100.00;97799.50;5097324;28;20279;-77
2022/01/10 03:31:28;;;;;;;13.03;8.43;;;;;;;2.96;100.00;97804.59;5099535;28;20253;-77
2022/01/10 03:33:55;;;;;;;11.20;8.17;;;;;;;3.00;100.00;97807.94;5097125;28;20739;-77
2022/01/10 03:36:21;;;;;;;11.03;8.13;;;;;;;3.04;100.00;97812.94;5096757;28;20589;-77
2022/01/10 03:38:48;;;;;;;11.90;8.23;;;;;;;3.03;100.00;97806.03;5096817;28;20207;-77
2022/01/10 03:41:14;;;;;;;9.90;8.47;;;;;;;3.01;100.00;97813.06;5105791;28;20588;-77
2022/01/10 03:43:41;;;;;;;10.93;7.80;;;;;;;2.98;100.00;97823.66;5110900;28;20223;-77
2022/01/10 03:46:09;;;;;;;11.93;8.73;;;;;;;2.97;100.00;97827.19;5110821;28;20218;-77
2022/01/10 03:48:36;;;;;;;12.73;9.00;;;;;;;2.97;100.00;97821.97;5110325;28;20215;-77
2022/01/10 03:51:02;;;;;;;12.23;9.40;;;;;;;2.96;100.00;97824.63;5107298;28;20693;-76
2022/01/10 03:53:29;;;;;;;12.73;8.83;;;;;;;2.94;100.00;97822.06;5110465;28;20220;-77
2022/01/10 03:55:55;;;;;;;11.90;9.23;;;;;;;2.94;100.00;97823.84;5112084;28;20210;-77
2022/01/10 03:58:22;;;;;;;13.67;9.97;;;;;;;2.91;100.00;97835.28;5110520;28;20211;-77
2022/01/10 04:00:49;;;;;;;10.93;9.17;;;;;;;2.91;100.00;97832.66;5106974;28;20223;-77
2022/01/10 04:03:17;;;;;;;11.03;8.03;;;;;;;2.93;100.00;97838.66;5096398;28;20220;-77
2022/01/10 04:05:43;;;;;;;13.17;8.70;;;;;;;2.93;100.00;97836.03;5096602;28;20221;-77
2022/01/10 04:08:12;;;;;;;14.30;7.83;;;;;;;2.92;100.00;97839.56;5094871;28;20212;-77
2022/01/10 04:10:38;;;;;;;12.80;8.03;;;;;;;2.95;100.00;97839.44;5108696;28;20642;-77
2022/01/10 04:13:05;;;;;;;9.37;7.40;;;;;;;2.98;100.00;97839.31;5096411;28;20212;-77
2022/01/10 04:15:32;;;;;;;11.23;8.13;;;;;;;2.98;100.00;97844.53;5096406;28;20215;-77
2022/01/10 04:18:01;;;;;;;13.67;7.30;;;;;;;3.01;100.00;97847.00;5096258;28;20214;-77
2022/01/10 04:20:29;;;;;;;12.63;7.27;;;;;;;2.98;100.00;97849.75;5098986;28;20684;-77
2022/01/10 04:22:55;;;;;;;10.73;7.23;;;;;;;2.95;100.00;97852.47;5096373;28;20212;-77
2022/01/10 04:25:22;;;;;;;11.33;7.83;;;;;;;2.89;100.00;97860.56;5095975;28;20690;-77
2022/01/10 04:27:48;;;;;;;11.07;7.10;;;;;;;2.91;100.00;97864.00;5096341;28;20221;-77
2022/01/10 04:30:16;;;;;;;10.23;7.50;;;;;;;2.95;100.00;97870.75;5098711;28;20234;-77
2022/01/10 04:32:44;;;;;;;11.63;7.83;;;;;;;2.93;100.00;97875.19;5096090;28;20716;-77
2022/01/10 04:35:11;;;;;;;11.50;7.70;;;;;;;2.81;100.00;97869.66;5094178;28;20732;-77
2022/01/10 04:37:39;;;;;;;12.17;8.23;;;;;;;2.84;100.00;97878.22;5096212;28;20215;-77
2022/01/10 04:40:08;;;;;;;11.20;7.70;;;;;;;2.82;100.00;97873.97;5098821;28;20223;-77
2022/01/10 04:42:36;;;;;;;9.33;7.47;;;;;;;2.82;100.00;97879.19;5096018;28;20222;-77
2022/01/10 04:45:03;;;;;;;15.87;8.17;;;;;;;2.84;100.00;97878.22;5095969;28;20214;-77
2022/01/10 04:47:29;;;;;;;11.13;7.10;;;;;;;2.89;100.00;97894.50;5095921;28;20302;-77
2022/01/10 04:50:10;;;;;;;10.43;7.23;;;;;;;2.85;100.00;97889.50;5098925;28;20214;-77
2022/01/10 04:52:39;;;;;;;10.60;7.23;;;;;;;2.86;100.00;97893.78;5096192;28;20242;-77
2022/01/10 04:55:07;;;;;;;10.90;7.70;;;;;;;2.92;100.00;97897.00;5096050;28;20222;-77
2022/01/10 04:57:33;;;;;;;12.30;7.87;;;;;;;2.93;100.00;97898.69;5096465;28;20211;-77
2022/01/10 04:59:59;;;;;;;11.90;7.33;;;;;;;2.98;100.00;97909.78;5097523;28;20217;-77
2022/01/10 05:02:26;;;;;;;12.73;7.87;;;;;;;2.98;100.00;97917.63;5095319;28;20206;-77
2022/01/10 05:04:53;;;;;;;11.87;8.27;;;;;;;3.03;100.00;97920.88;5095672;28;20211;-77
2022/01/10 05:07:19;;;;;;;11.77;8.13;;;;;;;3.03;100.00;97922.63;5096150;28;20206;-77
2022/01/10 05:09:47;;;;;;;13.33;7.67;;;;;;;3.03;100.00;97926.09;5099665;28;20690;-77
2022/01/10 05:12:14;;;;;;;12.53;8.33;;;;;;;2.99;100.00;97929.75;5107838;28;20240;-77
2022/01/10 05:14:40;;;;;;;14.77;9.37;;;;;;;3.04;100.00;97935.63;5098012;28;20210;-77
2022/01/10 05:17:07;;;;;;;15.50;9.47;;;;;;;3.08;100.00;97932.00;5099355;28;20218;-77
2022/01/10 05:19:33;;;;;;;15.30;9.03;;;;;;;3.10;100.00;97940.59;5110274;28;20226;-77
2022/01/10 05:22:00;;;;;;;13.63;8.57;;;;;;;3.03;100.00;97943.53;5113481;28;20210;-77
2022/01/10 05:24:26;;;;;;;12.30;8.03;;;;;;;3.08;100.00;97959.84;5113519;28;20217;-78
2022/01/10 05:26:54;;;;;;;15.60;9.27;;;;;;;3.10;100.00;97953.66;5111480;28;20221;-77
2022/01/10 05:29:20;;;;;;;17.40;8.80;;;;;;;3.13;100.00;97958.72;5109805;28;20235;-77
2022/01/10 05:31:47;;;;;;;19.00;9.33;;;;;;;3.11;100.00;97960.56;5112819;28;20245;-77
2022/01/10 05:34:14;;;;;;;13.70;8.93;;;;;;;3.07;100.00;97966.81;5113295;28;20214;-77
2022/01/10 05:36:40;;;;;;;14.07;8.50;;;;;;;3.10;100.00;97969.31;5113221;28;20210;-77
2022/01/10 05:39:07;;;;;;;14.07;8.93;;;;;;;3.13;100.00;97971.78;5110287;28;20213;-77
2022/01/10 05:41:34;;;;;;;15.20;8.73;;;;;;;3.17;100.00;97985.56;5113054;28;20236;-76
2022/01/10 05:44:01;;;;;;;15.23;8.77;;;;;;;3.07;100.00;97985.09;5112981;28;20217;-77
2022/01/10 05:46:28;;;;;;;16.17;8.87;;;;;;;3.08;100.00;97996.38;5112806;28;20218;-77
2022/01/10 05:49:00;;;;;;;13.77;8.97;;;;;;;3.07;100.00;97994.69;5110196;28;20218;-77
2022/01/10 05:51:28;;;;;;;16.37;9.13;;;;;;;3.10;100.00;97995.41;5099120;28;20234;-77
2022/01/10 05:53:54;;;;;;;15.60;9.70;;;;;;;3.09;100.00;97998.09;5097351;28;20253;-77
2022/01/10 05:56:21;;;;;;;12.53;9.00;;;;;;;3.16;100.00;98000.38;5098807;28;20211;-77
2022/01/10 05:58:47;;;;;;;12.40;8.60;;;;;;;3.20;100.00;98006.31;5101820;28;20235;-77
2022/01/10 06:01:15;;;;;;;13.37;8.70;;;;;;;3.18;100.00;98013.38;5098739;28;20217;-77
2022/01/10 06:03:41;;;;;;;14.03;8.30;;;;;;;3.23;100.00;98011.41;5098755;28;20210;-77
2022/01/10 06:06:08;;;;;;;13.80;9.10;;;;;;;3.25;100.00;98027.88;5098717;28;20267;-77
2022/01/10 06:08:34;;;;;;;16.67;9.37;;;;;;;3.24;100.00;98028.78;5100922;28;20257;-77
2022/01/10 06:11:01;;;;;;;13.33;9.50;;;;;;;3.29;100.00;98030.28;5107643;28;20253;-77
2022/01/10 06:13:27;;;;;;;12.87;8.83;;;;;;;3.27;100.00;98037.34;5098279;28;20220;-77
2022/01/10 06:15:54;;;;;;;11.97;9.00;;;;;;;3.30;100.00;98039.81;5098527;28;20219;-77
2022/01/10 06:18:22;;;;;;;13.90;8.83;;;;;;;3.34;100.00;98053.59;5100414;28;20222;-77
2022/01/10 06:20:48;;;;;;;17.00;9.67;;;;;;;3.31;100.00;98062.41;5097746;28;20215;-76
2022/01/10 06:23:15;;;;;;;14.80;9.10;;;;;;;3.29;100.00;98064.25;5098180;28;20208;-76
2022/01/10 06:25:42;;;;;;;12.83;9.27;;;;;;;3.29;100.00;98064.25;5106908;28;20207;-76
2022/01/10 06:28:09;;;;;;;13.30;8.93;;;;;;;3.32;100.00;98064.13;5101828;28;20209;-76
2022/01/10 06:30:36;;;;;;;13.50;8.77;;;;;;;3.26;100.00;98074.84;5099446;28;20296;-77
2022/01/10 06:33:02;;;;;;;13.57;9.30;;;;;;;3.30;100.00;98086.84;5098203;28;20317;-77
2022/01/10 06:35:30;;;;;;;13.70;9.33;;;;;;;3.27;100.00;98092.19;5097971;28;20257;-77
2022/01/10 06:37:56;;;;;;;14.77;10.97;;;;;;;3.20;100.00;98101.19;5099594;28;20586;-77
2022/01/10 06:40:23;;;;;;;16.30;11.20;;;;;;;3.30;100.00;98092.06;5099777;28;20212;-77
2022/01/10 06:42:50;;;;;;;15.50;10.77;;;;;;;3.29;100.00;98105.16;5098135;28;20243;-76
2022/01/10 06:45:16;;;;;;;18.17;11.83;;;;;;;3.24;100.00;98105.34;5097707;28;20699;-76
2022/01/10 06:47:43;;;;;;;15.83;9.97;;;;;;;3.18;100.00;98103.00;5097085;28;20211;-76
2022/01/10 06:50:10;;;;;;;13.77;9.93;;;;;;;3.20;100.00;98114.25;5099669;28;20218;-77
2022/01/10 06:52:38;;;;;;;16.37;10.43;;;;;;;3.32;100.00;98120.72;5097930;28;20234;-76
2022/01/10 06:55:05;;;;;;;15.50;10.07;;;;;;;3.27;100.00;98120.94;5097592;28;20211;-76
2022/01/10 06:57:32;;;;;;;14.83;9.60;;;;;;;3.20;100.00;98123.84;5098666;28;20214;-72
2022/01/10 07:00:01;;;;;;;15.53;9.10;;;;;;;3.23;100.00;98131.53;5099505;28;20218;-76
2022/01/10 07:02:27;;;;;;;16.67;9.57;;;;;;;3.23;100.00;98142.84;5097235;28;20327;-76
2022/01/10 07:04:55;;;;;;;11.97;8.13;;;;;;;3.18;100.00;98144.78;5097634;28;20628;-76
2022/01/10 07:07:21;;;;;;;16.90;9.63;;;;;;;3.12;100.00;98149.41;5098013;28;20215;-77
2022/01/10 07:09:49;;;;;;;15.50;9.00;;;;;;;3.10;100.00;98162.53;5100148;28;20199;-76
2022/01/10 07:12:15;;;;;;;14.83;9.73;;;;;;;3.11;100.00;98163.38;5095622;28;20234;-77
2022/01/10 07:14:42;;;;;;;16.10;9.70;;;;;;;3.16;100.00;98171.84;5097010;28;20674;-77
2022/01/10 07:17:09;;;;;;;15.63;9.70;;;;;;;3.19;100.00;98176.97;5097773;28;20210;-76
2022/01/10 07:19:36;;;;;;;14.07;9.73;;;;;;;3.20;100.00;98187.38;5099554;28;20217;-77
2022/01/10 07:22:03;;;;;;;20.70;9.83;;;;;;;3.14;100.00;98187.59;5096990;28;20755;-76
2022/01/10 07:24:30;;;;;;;13.77;10.40;;;;;;;3.14;100.00;98200.66;5097235;28;20212;-76
2022/01/10 07:26:57;;;;;;;17.90;10.67;;;;;;;3.15;100.00;98202.38;5097308;28;20655;-76
2022/01/10 07:29:24;;;;;;;14.27;9.83;;;;;;;3.18;100.00;98210.06;5100033;28;20241;-77
2022/01/10 07:31:50;;;;;;;17.17;11.67;;;;;;;3.22;100.00;98218.63;5094909;28;20615;-74
2022/01/10 07:34:17;;;;;;;17.53;12.00;;;;;;;3.23;100.00;98221.19;5094957;28;20211;-76
2022/01/10 07:36:44;;;;;;;14.40;9.87;;;;;;;3.09;100.00;98223.50;5095465;28;20219;-77
2022/01/10 07:39:12;;;;;;;19.63;10.60;;;;;;;3.15;100.00;98231.09;5104936;28;20207;-76
2022/01/10 07:41:39;;;;;;;14.63;9.07;;;;;;;3.10;100.00;98235.63;5106343;28;20668;-75
2022/01/10 07:44:07;;;;;;;14.90;9.87;;;;;;;3.14;100.00;98242.44;5095913;28;20561;-76
2022/01/10 07:46:33;;;;;;;15.77;10.17;;;;;;;3.14;100.00;98252.91;5096242;28;20216;-76
2022/01/10 07:49:00;;;;;;;16.90;9.97;;;;;;;3.08;100.00;98260.97;5097978;28;20259;-76
2022/01/10 07:51:27;;;;;;;12.97;9.17;;;;;;;3.08;100.00;98247.91;5100087;28;20210;-76
2022/01/10 07:53:54;;;;;;;14.73;9.87;;;;;;;3.13;100.00;98251.16;5093658;28;20215;-75
2022/01/10 07:56:20;;;;;;;13.70;9.87;;;;;;;3.12;100.00;98254.69;5092964;28;20588;-76
2022/01/10 07:58:50;;;;;;;17.87;9.10;;;;;;;3.08;100.00;98268.78;5094827;28;20215;-76
2022/01/10 08:01:19;;;;;;;12.70;9.27;;;;;;;3.11;100.00;98276.50;5098377;28;20218;-76
2022/01/10 08:03:46;;;;;;;14.53;9.67;;;;;;;3.14;100.00;98279.00;5107764;28;20242;-76
2022/01/10 08:06:12;;;;;;;12.93;9.07;;;;;;;3.14;100.00;98289.44;5094036;28;20693;-76
2022/01/10 08:08:39;;;;;;;15.50;8.83;;;;;;;3.17;100.00;98288.50;5096118;28;20214;-76
2022/01/10 08:11:05;;;;;;;14.00;9.50;;;;;;;3.20;100.00;98294.44;5107904;28;20215;-77
2022/01/10 08:13:32;;;;;;;17.13;9.27;;;;;;;3.18;100.00;98296.25;5108980;28;20619;-76
2022/01/10 08:15:58;;;;;;;13.93;9.90;;;;;;;3.21;100.00;98290.06;5109023;28;20258;-76
2022/01/10 08:18:26;;;;;;;15.40;9.37;;;;;;;3.29;100.00;98298.44;5108850;28;20211;-76
2022/01/10 08:20:53;;;;;;;16.07;10.23;;;;;;;3.37;100.00;98302.47;5104900;28;20215;-76
2022/01/10 08:23:19;;;;;;;16.83;10.73;;;;;;;3.43;100.00;98301.41;5108407;28;20758;-76
2022/01/10 08:25:46;;;;;;;15.47;10.20;;;;;;;3.45;100.00;98302.19;5108893;28;20578;-76
2022/01/10 08:28:12;;;;;;;19.43;11.00;;;;;;;3.42;100.00;98313.59;5108748;28;20552;-76
2022/01/10 08:30:38;;;;;;;19.27;10.17;;;;;;;3.41;100.00;98313.66;5105391;28;20717;-76
2022/01/10 08:33:05;;;;;;;16.53;10.47;;;;;;;3.37;100.00;98314.69;5105639;28;20234;-76
2022/01/10 08:35:33;;;;;;;17.80;11.03;;;;;;;3.41;100.00;98324.97;5108454;28;20699;-77
2022/01/10 08:38:00;;;;;;;13.83;9.63;;;;;;;3.39;100.00;98329.41;5108510;28;20210;-76
2022/01/10 08:40:26;;;;;;;14.73;10.07;;;;;;;3.40;100.00;98332.84;5105821;28;20227;-76
2022/01/10 08:42:53;;;;;;;13.87;9.67;;;;;;;3.50;100.00;98332.47;5107404;28;20218;-76
2022/01/10 08:45:20;;;;;;;15.03;9.77;;;;;;;3.50;100.00;98345.53;5108701;28;20233;-76
2022/01/10 08:47:46;;;;;;;13.13;8.83;;;;;;;3.55;100.00;98343.56;5108484;28;20217;-76
2022/01/10 08:50:14;;;;;;;16.60;11.90;;;;;;;3.60;100.00;98346.88;5109658;28;20212;-76
2022/01/10 08:52:42;;;;;;;17.97;11.07;;;;;;;3.67;100.00;98348.34;5111025;28;20236;-76
2022/01/10 08:55:10;;;;;;;17.13;10.47;;;;;;;3.65;100.00;98350.16;5112563;28;20298;-76
2022/01/10 08:57:36;;;;;;;17.00;10.40;;;;;;;3.63;100.00;98354.59;5112679;28;20217;-76
2022/01/10 09:00:05;;;;;;;18.93;10.40;;;;;;;3.71;100.00;98359.53;5107959;28;20210;-76
2022/01/10 09:02:31;;;;;;;16.37;10.87;;;;;;;3.74;100.00;98360.25;5110901;28;20227;-76
2022/01/10 09:04:58;;;;;;;18.57;10.33;;;;;;;3.74;100.00;98370.69;5112108;28;20214;-76
2022/01/10 09:07:24;;;;;;;17.23;10.40;;;;;;;3.81;100.00;98377.44;5103647;28;20222;-76
2022/01/10 09:09:52;;;;;;;18.90;11.03;;;;;;;3.82;100.00;98381.75;5101012;28;20214;-73
2022/01/10 09:12:18;;;;;;;16.33;10.30;;;;;;;3.75;100.00;98382.88;5110155;28;20235;-78
2022/01/10 09:14:45;;;;;;;18.03;10.13;;;;;;;3.75;100.00;98380.28;5113757;28;20218;-76
2022/01/10 09:17:11;;;;;;;15.73;10.00;;;;;;;3.79;100.00;98389.69;5112108;28;20588;-76
2022/01/10 09:19:38;;;;;;;17.13;11.37;;;;;;;3.88;100.00;98397.19;5110358;28;20214;-76
2022/01/10 09:22:05;;;;;;;16.57;10.67;;;;;;;3.85;100.00;98391.22;5109539;28;20207;-76
2022/01/10 09:24:31;;;;;;;15.90;10.73;;;;;;;3.79;100.00;98397.53;5109967;28;20687;-77
2022/01/10 09:26:59;;;;;;;20.27;11.07;;;;;;;3.83;100.00;98403.50;5112057;28;20215;-76
2022/01/10 09:29:26;;;;;;;20.77;11.53;;;;;;;3.89;100.00;98411.97;5110292;28;20585;-76
2022/01/10 09:31:53;;;;;;;19.73;11.20;;;;;;;3.90;100.00;98408.44;5109214;28;20633;-75
2022/01/10 09:34:19;;;;;;;22.10;12.10;;;;;;;3.96;100.00;98423.88;5111574;28;20245;-75
2022/01/10 09:36:46;;;;;;;17.70;11.53;;;;;;;4.04;100.00;98424.44;5111884;28;20713;-75
2022/01/10 09:39:13;;;;;;;18.73;11.23;;;;;;;4.09;100.00;98430.34;5110912;28;20213;-75
2022/01/10 09:41:40;;;;;;;15.37;10.77;;;;;;;4.06;100.00;98419.16;5108500;28;20587;-75
2022/01/10 09:44:08;;;;;;;17.97;11.20;;;;;;;4.07;100.00;98434.78;5111474;28;20215;-75
2022/01/10 09:46:35;;;;;;;17.37;11.47;;;;;;;3.99;100.00;98439.47;5111793;28;20218;-75
2022/01/10 09:49:04;;;;;;;19.80;12.03;;;;;;;4.05;100.00;98443.59;5110628;28;20216;-75
2022/01/10 09:51:32;;;;;;;15.20;10.50;;;;;;;4.06;100.00;98448.78;5106787;28;20223;-75
2022/01/10 09:54:00;;;;;;;17.07;10.20;;;;;;;4.05;100.00;98454.94;5111509;28;20237;-75
2022/01/10 09:56:28;;;;;;;16.83;10.80;;;;;;;4.13;100.00;98459.84;5111188;28;20211;-75
2022/01/10 09:58:55;;;;;;;14.30;9.70;;;;;;;4.22;100.00;98462.13;5110237;28;20214;-76
2022/01/10 10:01:25;;;;;;;18.70;11.40;;;;;;;4.35;100.00;98458.94;5108148;28;20241;-76
2022/01/10 10:03:53;;;;;;;16.50;11.23;;;;;;;4.34;100.00;98467.72;5111473;28;20215;-76
2022/01/10 10:06:20;;;;;;;18.63;12.33;;;;;;;4.36;100.00;98460.66;5111429;28;20221;-76
2022/01/10 10:08:47;;;;;;;18.97;12.47;;;;;;;4.39;100.00;98465.78;5109848;28;20241;-76
2022/01/10 10:11:16;;;;;;;17.03;10.77;;;;;;;4.47;100.00;98466.31;5098481;28;20222;-76
2022/01/10 10:13:44;;;;;;;18.10;11.90;;;;;;;4.58;100.00;98474.59;5097737;28;20233;-75
2022/01/10 10:16:14;;;;;;;14.60;11.47;;;;;;;4.50;100.00;98476.66;5098170;28;20213;-76
2022/01/10 10:18:43;;;;;;;14.50;10.83;;;;;;;4.52;100.00;98482.69;5096312;28;20207;-76
2022/01/10 10:21:14;;;;;;;15.10;9.03;;;;;;;4.54;100.00;98487.88;5104799;28;20250;-75
2022/01/10 10:23:46;;;;;;;12.40;8.60;;;;;;;4.65;100.00;98483.91;5094962;28;20215;-74
2022/01/10 10:26:16;;;;;;;15.30;9.37;;;;;;;4.71;100.00;98488.06;5095504;28;20250;-74
2022/01/10 10:28:45;;;;;;;14.77;9.13;;;;;;;4.64;100.00;98491.84;5106118;28;20240;-75
2022/01/10 10:31:12;;;;;;;13.57;8.77;;;;;;;4.58;100.00;98477.22;5109113;28;20237;-75
2022/01/10 10:33:49;;;;;;;13.63;9.77;;;;;;;4.62;100.00;98488.41;5110516;28;20722;-75
2022/01/10 10:36:16;;;;;;;17.27;9.10;;;;;;;4.58;100.00;98487.69;5110543;28;20222;-74
2022/01/10 10:38:43;;;;;;;16.53;9.07;;;;;;;4.58;100.00;98489.47;5110440;28;20226;-74
2022/01/10 10:41:09;;;;;;;14.90;9.23;;;;;;;4.61;100.00;98490.19;5110890;28;20212;-75
2022/01/10 10:43:38;;;;;;;13.80;8.97;;;;;;;4.68;100.00;98496.88;5110446;28;20223;-74
2022/01/10 10:46:10;;;;;;;10.73;8.50;;;;;;;4.81;100.00;98491.97;5095282;28;20208;-75
2022/01/10 10:48:38;;;;;;;13.60;9.17;;;;;;;5.10;100.00;98497.75;5096566;28;20218;-80
2022/01/10 10:51:06;;;;;;;12.33;8.57;;;;;;;5.32;100.00;98490.66;5094027;28;20214;-79
2022/01/10 10:53:32;;;;;;;14.43;8.10;;;;;;;5.58;100.00;98495.66;5098126;28;20241;-79
2022/01/10 10:56:00;;;;;;;12.60;8.00;;;;;;;5.73;100.00;98505.47;5099209;28;20206;-80
2022/01/10 10:58:28;;;;;;;12.97;8.27;;;;;;;5.89;100.00;98501.28;5097263;28;20212;-79
2022/01/10 11:00:55;;;;;;;13.40;8.33;;;;;;;5.94;97.85;98507.19;5097369;28;20216;-79
2022/01/10 11:03:22;;;;;;;14.27;8.57;;;;;;;6.03;96.91;98503.25;5097902;28;20240;-79
2022/01/10 11:05:49;;;;;;;15.97;8.03;;;;;;;6.08;97.22;98498.66;5099195;28;20208;-78
2022/01/10 11:08:18;;;;;;;10.90;7.10;;;;;;;6.16;96.35;98499.19;5097405;28;20214;-79
2022/01/10 11:10:45;;;;;;;10.20;6.57;;;;;;;6.33;96.92;98502.72;5102008;28;20292;-79
2022/01/10 11:13:13;;;;;;;14.10;7.83;;;;;;;6.56;93.50;98512.16;5110530;28;20567;-79
2022/01/10 11:15:40;;;;;;;14.20;8.37;;;;;;;6.76;93.84;98512.03;5109092;28;20219;-79
2022/01/10 11:18:08;;;;;;;10.90;7.70;;;;;;;7.05;92.94;98520.25;5111395;28;20579;-79
2022/01/10 11:20:42;;;;;;;11.87;8.23;;;;;;;7.42;90.16;98520.09;5111027;28;20234;-79
2022/01/10 11:23:10;;;;;;;13.10;8.53;;;;;;;7.71;86.79;98525.56;5109528;28;20217;-79
2022/01/10 11:25:40;;;;;;;12.43;7.67;;;;;;;7.83;86.71;98532.00;5109809;28;20207;-79